sensor_id;sensor_type;location;lat;lon;timestamp;P1;durP1;ratioP1;P2;durP2;ratioP2
11970;SDS011;6045;42.682;23.294;2023-03-14T00:02:20;10.40;;;6.00;;
11970;SDS011;6045;42.682;23.294;2023-03-14T00:04:46;5.90;;;4.83;;
11970;SDS011;6045;42.682;23.294;2023-03-14T00:07:13;9.53;;;5.40;;
11970;SDS011;6045;42.682;23.294;2023-03-14T00:09:41;8.33;;;5.03;;
11970;SDS011;6045;42.682;23.294;2023-03-14T00:12:08;7.10;;;4.63;;
11970;SDS011;6045;42.682;23.294;2023-03-14T00:14:35;5.47;;;4.10;;
11970;SDS011;6045;42.682;23.294;2023-03-14T00:17:02;7.87;;;4.00;;
11970;SDS011;6045;42.682;23.294;2023-03-14T00:19:29;5.70;;;2.83;;
11970;SDS011;6045;42.682;23.294;2023-03-14T00:21:55;5.47;;;4.10;;
11970;SDS011;6045;42.682;23.294;2023-03-14T00:24:22;5.50;;;3.33;;
11970;SDS011;6045;42.682;23.294;2023-03-14T00:26:50;6.97;;;3.23;;
11970;SDS011;6045;42.682;23.294;2023-03-14T00:29:17;4.53;;;3.27;;
11970;SDS011;6045;42.682;23.294;2023-03-14T00:31:44;4.63;;;3.00;;
11970;SDS011;6045;42.682;23.294;2023-03-14T00:34:10;5.03;;;3.70;;
11970;SDS011;6045;42.682;23.294;2023-03-14T00:36:37;5.50;;;2.63;;
11970;SDS011;6045;42.682;23.294;2023-03-14T00:39:04;5.10;;;2.87;;
11970;SDS011;6045;42.682;23.294;2023-03-14T00:41:31;2.73;;;2.07;;
11970;SDS011;6045;42.682;23.294;2023-03-14T00:43:59;4.03;;;2.70;;
11970;SDS011;6045;42.682;23.294;2023-03-14T00:46:26;4.30;;;2.47;;
11970;SDS011;6045;42.682;23.294;2023-03-14T00:48:52;3.67;;;2.50;;
11970;SDS011;6045;42.682;23.294;2023-03-14T00:51:19;2.60;;;2.40;;
11970;SDS011;6045;42.682;23.294;2023-03-14T00:53:46;4.03;;;2.50;;
11970;SDS011;6045;42.682;23.294;2023-03-14T00:56:13;3.67;;;2.53;;
11970;SDS011;6045;42.682;23.294;2023-03-14T00:58:40;5.47;;;3.63;;
11970;SDS011;6045;42.682;23.294;2023-03-14T01:01:09;8.07;;;4.60;;
11970;SDS011;6045;42.682;23.294;2023-03-14T01:03:39;7.93;;;4.13;;
11970;SDS011;6045;42.682;23.294;2023-03-14T01:06:06;7.17;;;4.80;;
11970;SDS011;6045;42.682;23.294;2023-03-14T01:08:34;10.10;;;4.80;;
11970;SDS011;6045;42.682;23.294;2023-03-14T01:11:04;6.90;;;5.00;;
11970;SDS011;6045;42.682;23.294;2023-03-14T01:13:32;10.93;;;5.57;;
11970;SDS011;6045;42.682;23.294;2023-03-14T01:16:00;4.70;;;4.30;;
11970;SDS011;6045;42.682;23.294;2023-03-14T01:18:30;7.80;;;4.33;;
11970;SDS011;6045;42.682;23.294;2023-03-14T01:20:58;11.10;;;5.67;;
11970;SDS011;6045;42.682;23.294;2023-03-14T01:23:24;12.33;;;5.37;;
11970;SDS011;6045;42.682;23.294;2023-03-14T01:25:51;8.60;;;5.33;;
11970;SDS011;6045;42.682;23.294;2023-03-14T01:28:18;9.47;;;5.27;;
11970;SDS011;6045;42.682;23.294;2023-03-14T01:30:45;13.57;;;5.67;;
11970;SDS011;6045;42.682;23.294;2023-03-14T01:33:12;10.07;;;5.13;;
11970;SDS011;6045;42.682;23.294;2023-03-14T01:35:41;6.90;;;4.43;;
11970;SDS011;6045;42.682;23.294;2023-03-14T01:38:07;10.63;;;5.90;;
11970;SDS011;6045;42.682;23.294;2023-03-14T01:40:41;5.13;;;3.77;;
11970;SDS011;6045;42.682;23.294;2023-03-14T01:43:12;9.27;;;5.60;;
11970;SDS011;6045;42.682;23.294;2023-03-14T01:48:40;6.60;;;4.40;;
11970;SDS011;6045;42.682;23.294;2023-03-14T01:51:13;7.73;;;5.07;;
11970;SDS011;6045;42.682;23.294;2023-03-14T01:53:42;7.10;;;5.23;;
11970;SDS011;6045;42.682;23.294;2023-03-14T01:56:11;6.13;;;4.80;;
11970;SDS011;6045;42.682;23.294;2023-03-14T01:58:40;8.83;;;4.57;;
11970;SDS011;6045;42.682;23.294;2023-03-14T02:01:11;6.83;;;4.87;;
11970;SDS011;6045;42.682;23.294;2023-03-14T02:03:42;6.80;;;5.03;;
11970;SDS011;6045;42.682;23.294;2023-03-14T02:06:14;9.57;;;5.33;;
11970;SDS011;6045;42.682;23.294;2023-03-14T02:08:45;12.30;;;5.37;;
11970;SDS011;6045;42.682;23.294;2023-03-14T02:11:14;9.47;;;4.57;;
11970;SDS011;6045;42.682;23.294;2023-03-14T02:13:41;5.93;;;4.13;;
11970;SDS011;6045;42.682;23.294;2023-03-14T02:16:09;7.23;;;4.23;;
11970;SDS011;6045;42.682;23.294;2023-03-14T02:18:36;6.80;;;4.33;;
11970;SDS011;6045;42.682;23.294;2023-03-14T02:21:05;8.37;;;5.23;;
11970;SDS011;6045;42.682;23.294;2023-03-14T02:23:42;10.03;;;5.30;;
11970;SDS011;6045;42.682;23.294;2023-03-14T02:26:15;8.93;;;4.83;;
11970;SDS011;6045;42.682;23.294;2023-03-14T02:28:48;7.80;;;4.63;;
11970;SDS011;6045;42.682;23.294;2023-03-14T02:31:18;5.10;;;4.27;;
11970;SDS011;6045;42.682;23.294;2023-03-14T02:33:46;9.10;;;5.00;;
11970;SDS011;6045;42.682;23.294;2023-03-14T02:36:14;6.97;;;4.57;;
11970;SDS011;6045;42.682;23.294;2023-03-14T02:38:43;14.17;;;5.27;;
11970;SDS011;6045;42.682;23.294;2023-03-14T02:41:14;6.23;;;3.73;;
11970;SDS011;6045;42.682;23.294;2023-03-14T02:43:40;9.83;;;5.17;;
11970;SDS011;6045;42.682;23.294;2023-03-14T02:46:09;8.87;;;4.97;;
11970;SDS011;6045;42.682;23.294;2023-03-14T02:48:38;6.00;;;4.27;;
11970;SDS011;6045;42.682;23.294;2023-03-14T02:51:07;6.97;;;5.23;;
11970;SDS011;6045;42.682;23.294;2023-03-14T02:53:35;6.17;;;3.83;;
11970;SDS011;6045;42.682;23.294;2023-03-14T02:56:03;9.77;;;6.27;;
11970;SDS011;6045;42.682;23.294;2023-03-14T02:58:30;8.47;;;5.70;;
11970;SDS011;6045;42.682;23.294;2023-03-14T03:00:57;7.20;;;4.23;;
11970;SDS011;6045;42.682;23.294;2023-03-14T03:03:25;4.90;;;3.67;;
11970;SDS011;6045;42.682;23.294;2023-03-14T03:05:53;8.47;;;4.47;;
11970;SDS011;6045;42.682;23.294;2023-03-14T03:08:22;5.90;;;3.97;;
11970;SDS011;6045;42.682;23.294;2023-03-14T03:10:50;7.63;;;4.27;;
11970;SDS011;6045;42.682;23.294;2023-03-14T03:13:17;6.60;;;4.20;;
11970;SDS011;6045;42.682;23.294;2023-03-14T03:15:44;4.83;;;4.37;;
11970;SDS011;6045;42.682;23.294;2023-03-14T03:18:11;8.20;;;3.77;;
11970;SDS011;6045;42.682;23.294;2023-03-14T03:20:39;7.93;;;4.30;;
11970;SDS011;6045;42.682;23.294;2023-03-14T03:23:06;7.77;;;4.33;;
11970;SDS011;6045;42.682;23.294;2023-03-14T03:25:33;5.33;;;3.60;;
11970;SDS011;6045;42.682;23.294;2023-03-14T03:28:00;6.00;;;4.53;;
11970;SDS011;6045;42.682;23.294;2023-03-14T03:30:32;4.83;;;3.40;;
11970;SDS011;6045;42.682;23.294;2023-03-14T03:32:59;5.50;;;3.97;;
11970;SDS011;6045;42.682;23.294;2023-03-14T03:35:26;6.57;;;4.20;;
11970;SDS011;6045;42.682;23.294;2023-03-14T03:37:54;8.67;;;5.63;;
11970;SDS011;6045;42.682;23.294;2023-03-14T03:40:21;11.63;;;5.80;;
11970;SDS011;6045;42.682;23.294;2023-03-14T03:42:47;7.93;;;4.10;;
11970;SDS011;6045;42.682;23.294;2023-03-14T03:45:14;8.27;;;5.97;;
11970;SDS011;6045;42.682;23.294;2023-03-14T03:47:41;7.10;;;5.23;;
11970;SDS011;6045;42.682;23.294;2023-03-14T03:50:08;7.77;;;4.63;;
11970;SDS011;6045;42.682;23.294;2023-03-14T03:52:35;5.50;;;3.83;;
11970;SDS011;6045;42.682;23.294;2023-03-14T03:55:04;8.57;;;4.60;;
11970;SDS011;6045;42.682;23.294;2023-03-14T03:57:31;7.77;;;5.23;;
11970;SDS011;6045;42.682;23.294;2023-03-14T03:59:58;9.43;;;4.53;;
11970;SDS011;6045;42.682;23.294;2023-03-14T04:02:24;8.10;;;4.17;;
11970;SDS011;6045;42.682;23.294;2023-03-14T04:04:51;9.70;;;5.53;;
11970;SDS011;6045;42.682;23.294;2023-03-14T04:07:18;8.23;;;4.87;;
11970;SDS011;6045;42.682;23.294;2023-03-14T04:09:45;8.33;;;4.97;;
11970;SDS011;6045;42.682;23.294;2023-03-14T04:12:13;5.97;;;5.07;;
11970;SDS011;6045;42.682;23.294;2023-03-14T04:14:40;8.17;;;5.13;;
11970;SDS011;6045;42.682;23.294;2023-03-14T04:17:07;8.70;;;4.50;;
11970;SDS011;6045;42.682;23.294;2023-03-14T04:19:34;9.63;;;4.53;;
11970;SDS011;6045;42.682;23.294;2023-03-14T04:22:01;13.40;;;5.27;;
11970;SDS011;6045;42.682;23.294;2023-03-14T04:24:28;8.33;;;5.10;;
11970;SDS011;6045;42.682;23.294;2023-03-14T04:26:55;9.30;;;5.00;;
11970;SDS011;6045;42.682;23.294;2023-03-14T04:29:23;9.50;;;4.13;;
11970;SDS011;6045;42.682;23.294;2023-03-14T04:31:49;7.00;;;3.83;;
11970;SDS011;6045;42.682;23.294;2023-03-14T04:34:16;5.07;;;3.80;;
11970;SDS011;6045;42.682;23.294;2023-03-14T04:36:43;7.47;;;5.00;;
11970;SDS011;6045;42.682;23.294;2023-03-14T04:39:10;9.33;;;5.40;;
11970;SDS011;6045;42.682;23.294;2023-03-14T04:41:36;6.30;;;5.37;;
11970;SDS011;6045;42.682;23.294;2023-03-14T04:44:03;8.33;;;4.60;;
11970;SDS011;6045;42.682;23.294;2023-03-14T04:46:31;11.20;;;6.10;;
11970;SDS011;6045;42.682;23.294;2023-03-14T04:48:58;11.00;;;5.83;;
11970;SDS011;6045;42.682;23.294;2023-03-14T04:51:25;11.57;;;6.43;;
11970;SDS011;6045;42.682;23.294;2023-03-14T04:53:53;8.13;;;4.90;;
11970;SDS011;6045;42.682;23.294;2023-03-14T04:56:20;8.60;;;5.97;;
11970;SDS011;6045;42.682;23.294;2023-03-14T04:58:47;6.37;;;5.17;;
11970;SDS011;6045;42.682;23.294;2023-03-14T05:01:17;10.53;;;5.37;;
11970;SDS011;6045;42.682;23.294;2023-03-14T05:03:47;6.27;;;4.30;;
11970;SDS011;6045;42.682;23.294;2023-03-14T05:06:14;7.53;;;5.27;;
11970;SDS011;6045;42.682;23.294;2023-03-14T05:08:41;7.97;;;5.17;;
11970;SDS011;6045;42.682;23.294;2023-03-14T05:11:09;8.60;;;5.80;;
11970;SDS011;6045;42.682;23.294;2023-03-14T05:13:37;8.20;;;4.67;;
11970;SDS011;6045;42.682;23.294;2023-03-14T05:16:04;7.87;;;5.03;;
11970;SDS011;6045;42.682;23.294;2023-03-14T05:18:31;8.77;;;4.73;;
11970;SDS011;6045;42.682;23.294;2023-03-14T05:21:00;12.90;;;5.27;;
11970;SDS011;6045;42.682;23.294;2023-03-14T05:23:27;9.13;;;4.53;;
11970;SDS011;6045;42.682;23.294;2023-03-14T05:25:54;9.13;;;5.43;;
11970;SDS011;6045;42.682;23.294;2023-03-14T05:28:20;11.87;;;4.90;;
11970;SDS011;6045;42.682;23.294;2023-03-14T05:30:47;10.90;;;5.23;;
11970;SDS011;6045;42.682;23.294;2023-03-14T05:33:14;9.47;;;5.93;;
11970;SDS011;6045;42.682;23.294;2023-03-14T05:35:41;10.23;;;5.40;;
11970;SDS011;6045;42.682;23.294;2023-03-14T05:38:09;8.43;;;5.07;;
11970;SDS011;6045;42.682;23.294;2023-03-14T05:40:36;10.00;;;4.57;;
11970;SDS011;6045;42.682;23.294;2023-03-14T05:43:03;10.03;;;4.77;;
11970;SDS011;6045;42.682;23.294;2023-03-14T05:45:30;6.20;;;5.33;;
11970;SDS011;6045;42.682;23.294;2023-03-14T05:47:56;6.27;;;4.97;;
11970;SDS011;6045;42.682;23.294;2023-03-14T05:50:23;8.13;;;5.50;;
11970;SDS011;6045;42.682;23.294;2023-03-14T05:52:50;7.37;;;4.70;;
11970;SDS011;6045;42.682;23.294;2023-03-14T05:55:18;6.33;;;4.30;;
11970;SDS011;6045;42.682;23.294;2023-03-14T05:57:45;6.70;;;5.00;;
11970;SDS011;6045;42.682;23.294;2023-03-14T06:00:12;9.73;;;5.17;;
11970;SDS011;6045;42.682;23.294;2023-03-14T06:02:39;9.50;;;5.00;;
11970;SDS011;6045;42.682;23.294;2023-03-14T06:05:07;11.80;;;6.20;;
11970;SDS011;6045;42.682;23.294;2023-03-14T06:07:34;6.17;;;4.83;;
11970;SDS011;6045;42.682;23.294;2023-03-14T06:10:00;10.30;;;5.97;;
11970;SDS011;6045;42.682;23.294;2023-03-14T06:12:28;10.60;;;5.93;;
11970;SDS011;6045;42.682;23.294;2023-03-14T06:14:55;10.17;;;6.27;;
11970;SDS011;6045;42.682;23.294;2023-03-14T06:17:22;6.70;;;5.20;;
11970;SDS011;6045;42.682;23.294;2023-03-14T06:19:48;6.40;;;4.97;;
11970;SDS011;6045;42.682;23.294;2023-03-14T06:22:15;8.37;;;5.87;;
11970;SDS011;6045;42.682;23.294;2023-03-14T06:24:42;8.63;;;5.87;;
11970;SDS011;6045;42.682;23.294;2023-03-14T06:27:09;7.47;;;5.13;;
11970;SDS011;6045;42.682;23.294;2023-03-14T06:29:37;9.07;;;6.23;;
11970;SDS011;6045;42.682;23.294;2023-03-14T06:32:04;12.17;;;6.93;;
11970;SDS011;6045;42.682;23.294;2023-03-14T06:34:31;10.33;;;7.47;;
11970;SDS011;6045;42.682;23.294;2023-03-14T06:36:58;11.30;;;8.33;;
11970;SDS011;6045;42.682;23.294;2023-03-14T06:39:24;19.20;;;10.83;;
11970;SDS011;6045;42.682;23.294;2023-03-14T06:41:51;20.27;;;12.87;;
11970;SDS011;6045;42.682;23.294;2023-03-14T06:44:18;18.73;;;12.30;;
11970;SDS011;6045;42.682;23.294;2023-03-14T06:46:46;10.90;;;7.83;;
11970;SDS011;6045;42.682;23.294;2023-03-14T06:49:13;12.47;;;7.53;;
11970;SDS011;6045;42.682;23.294;2023-03-14T06:51:39;10.33;;;6.83;;
11970;SDS011;6045;42.682;23.294;2023-03-14T06:54:06;11.93;;;6.83;;
11970;SDS011;6045;42.682;23.294;2023-03-14T06:56:33;8.97;;;5.50;;
11970;SDS011;6045;42.682;23.294;2023-03-14T06:59:00;12.90;;;7.10;;
11970;SDS011;6045;42.682;23.294;2023-03-14T07:01:27;9.70;;;6.80;;
11970;SDS011;6045;42.682;23.294;2023-03-14T07:03:58;11.03;;;5.87;;
11970;SDS011;6045;42.682;23.294;2023-03-14T07:06:25;14.50;;;6.00;;
11970;SDS011;6045;42.682;23.294;2023-03-14T07:08:54;9.03;;;5.83;;
11970;SDS011;6045;42.682;23.294;2023-03-14T07:11:21;8.33;;;5.30;;
11970;SDS011;6045;42.682;23.294;2023-03-14T07:13:48;9.40;;;6.17;;
11970;SDS011;6045;42.682;23.294;2023-03-14T07:16:15;8.20;;;5.80;;
11970;SDS011;6045;42.682;23.294;2023-03-14T07:18:42;10.53;;;6.73;;
11970;SDS011;6045;42.682;23.294;2023-03-14T07:21:10;8.03;;;5.20;;
11970;SDS011;6045;42.682;23.294;2023-03-14T07:23:37;12.10;;;5.40;;
11970;SDS011;6045;42.682;23.294;2023-03-14T07:26:04;7.73;;;5.53;;
11970;SDS011;6045;42.682;23.294;2023-03-14T07:28:31;10.30;;;6.30;;
11970;SDS011;6045;42.682;23.294;2023-03-14T07:30:58;11.43;;;6.07;;
11970;SDS011;6045;42.682;23.294;2023-03-14T07:33:25;10.20;;;5.50;;
11970;SDS011;6045;42.682;23.294;2023-03-14T07:35:51;8.40;;;5.20;;
11970;SDS011;6045;42.682;23.294;2023-03-14T07:38:19;7.40;;;4.57;;
11970;SDS011;6045;42.682;23.294;2023-03-14T07:40:46;6.67;;;4.77;;
11970;SDS011;6045;42.682;23.294;2023-03-14T07:43:13;7.60;;;4.90;;
11970;SDS011;6045;42.682;23.294;2023-03-14T07:45:40;5.87;;;4.67;;
11970;SDS011;6045;42.682;23.294;2023-03-14T07:48:06;8.03;;;5.43;;
11970;SDS011;6045;42.682;23.294;2023-03-14T07:50:33;7.57;;;5.13;;
11970;SDS011;6045;42.682;23.294;2023-03-14T07:53:00;8.73;;;6.20;;
11970;SDS011;6045;42.682;23.294;2023-03-14T07:55:28;10.23;;;6.83;;
11970;SDS011;6045;42.682;23.294;2023-03-14T07:57:55;9.75;;;6.32;;
11970;SDS011;6045;42.682;23.294;2023-03-14T08:00:24;11.27;;;7.70;;
11970;SDS011;6045;42.682;23.294;2023-03-14T08:02:51;10.15;;;6.75;;
11970;SDS011;6045;42.682;23.294;2023-03-14T08:05:18;8.77;;;7.45;;
11970;SDS011;6045;42.682;23.294;2023-03-14T08:07:45;11.38;;;7.53;;
11970;SDS011;6045;42.682;23.294;2023-03-14T08:10:12;12.70;;;8.70;;
11970;SDS011;6045;42.682;23.294;2023-03-14T08:12:42;11.20;;;8.00;;
11970;SDS011;6045;42.682;23.294;2023-03-14T08:15:09;13.43;;;8.52;;
11970;SDS011;6045;42.682;23.294;2023-03-14T08:17:36;10.82;;;7.63;;
11970;SDS011;6045;42.682;23.294;2023-03-14T08:20:03;10.63;;;7.72;;
11970;SDS011;6045;42.682;23.294;2023-03-14T08:22:33;11.10;;;7.60;;
11970;SDS011;6045;42.682;23.294;2023-03-14T08:25:00;11.57;;;7.35;;
11970;SDS011;6045;42.682;23.294;2023-03-14T08:27:27;13.02;;;7.72;;
11970;SDS011;6045;42.682;23.294;2023-03-14T08:29:55;11.70;;;8.00;;
11970;SDS011;6045;42.682;23.294;2023-03-14T08:32:22;12.82;;;7.25;;
11970;SDS011;6045;42.682;23.294;2023-03-14T08:34:48;12.35;;;7.55;;
11970;SDS011;6045;42.682;23.294;2023-03-14T08:37:15;11.60;;;8.45;;
11970;SDS011;6045;42.682;23.294;2023-03-14T08:39:44;11.48;;;7.15;;
11970;SDS011;6045;42.682;23.294;2023-03-14T08:42:12;8.50;;;6.93;;
11970;SDS011;6045;42.682;23.294;2023-03-14T08:44:39;9.68;;;7.30;;
11970;SDS011;6045;42.682;23.294;2023-03-14T08:47:08;9.82;;;7.50;;
11970;SDS011;6045;42.682;23.294;2023-03-14T08:49:34;10.13;;;6.90;;
11970;SDS011;6045;42.682;23.294;2023-03-14T08:52:01;8.82;;;5.97;;
11970;SDS011;6045;42.682;23.294;2023-03-14T08:54:28;7.00;;;6.00;;
11970;SDS011;6045;42.682;23.294;2023-03-14T08:56:55;7.38;;;5.28;;
11970;SDS011;6045;42.682;23.294;2023-03-14T08:59:22;7.28;;;6.05;;
11970;SDS011;6045;42.682;23.294;2023-03-14T09:01:49;7.90;;;5.97;;
11970;SDS011;6045;42.682;23.294;2023-03-14T09:04:17;9.20;;;5.57;;
11970;SDS011;6045;42.682;23.294;2023-03-14T09:06:44;7.68;;;5.07;;
11970;SDS011;6045;42.682;23.294;2023-03-14T09:09:10;7.28;;;5.45;;
11970;SDS011;6045;42.682;23.294;2023-03-14T09:11:38;6.68;;;4.90;;
11970;SDS011;6045;42.682;23.294;2023-03-14T09:14:05;6.07;;;4.95;;
11970;SDS011;6045;42.682;23.294;2023-03-14T09:16:32;7.30;;;5.30;;
11970;SDS011;6045;42.682;23.294;2023-03-14T09:18:59;6.45;;;4.80;;
11970;SDS011;6045;42.682;23.294;2023-03-14T09:21:28;6.35;;;4.95;;
11970;SDS011;6045;42.682;23.294;2023-03-14T09:23:54;6.40;;;4.85;;
11970;SDS011;6045;42.682;23.294;2023-03-14T09:26:21;5.57;;;4.45;;
11970;SDS011;6045;42.682;23.294;2023-03-14T09:28:48;8.02;;;4.35;;
11970;SDS011;6045;42.682;23.294;2023-03-14T09:31:15;8.05;;;4.78;;
11970;SDS011;6045;42.682;23.294;2023-03-14T09:33:42;4.68;;;3.78;;
11970;SDS011;6045;42.682;23.294;2023-03-14T09:36:10;7.18;;;4.65;;
11970;SDS011;6045;42.682;23.294;2023-03-14T09:38:38;5.68;;;4.80;;
11970;SDS011;6045;42.682;23.294;2023-03-14T09:41:11;7.93;;;4.90;;
11970;SDS011;6045;42.682;23.294;2023-03-14T09:43:40;6.53;;;4.63;;
11970;SDS011;6045;42.682;23.294;2023-03-14T09:46:09;7.72;;;5.32;;
11970;SDS011;6045;42.682;23.294;2023-03-14T09:48:37;5.43;;;4.43;;
11970;SDS011;6045;42.682;23.294;2023-03-14T09:51:05;7.20;;;4.60;;
11970;SDS011;6045;42.682;23.294;2023-03-14T09:53:41;5.07;;;4.18;;
11970;SDS011;6045;42.682;23.294;2023-03-14T09:56:11;5.35;;;4.43;;
11970;SDS011;6045;42.682;23.294;2023-03-14T09:58:40;6.60;;;4.55;;
11970;SDS011;6045;42.682;23.294;2023-03-14T10:01:11;5.18;;;4.10;;
11970;SDS011;6045;42.682;23.294;2023-03-14T10:03:42;4.68;;;3.88;;
11970;SDS011;6045;42.682;23.294;2023-03-14T10:06:11;5.25;;;3.83;;
11970;SDS011;6045;42.682;23.294;2023-03-14T10:08:41;7.30;;;4.32;;
11970;SDS011;6045;42.682;23.294;2023-03-14T10:11:11;4.47;;;3.40;;
11970;SDS011;6045;42.682;23.294;2023-03-14T10:13:47;5.90;;;3.72;;
11970;SDS011;6045;42.682;23.294;2023-03-14T10:16:16;4.63;;;3.72;;
11970;SDS011;6045;42.682;23.294;2023-03-14T10:18:44;5.85;;;3.70;;
11970;SDS011;6045;42.682;23.294;2023-03-14T10:21:17;4.65;;;3.75;;
11970;SDS011;6045;42.682;23.294;2023-03-14T10:23:53;6.68;;;3.83;;
11970;SDS011;6045;42.682;23.294;2023-03-14T10:26:23;4.07;;;3.67;;
11970;SDS011;6045;42.682;23.294;2023-03-14T10:28:53;4.43;;;3.63;;
11970;SDS011;6045;42.682;23.294;2023-03-14T10:31:28;3.58;;;3.10;;
11970;SDS011;6045;42.682;23.294;2023-03-14T10:34:15;6.28;;;4.05;;
11970;SDS011;6045;42.682;23.294;2023-03-14T10:36:47;5.53;;;3.45;;
11970;SDS011;6045;42.682;23.294;2023-03-14T10:39:25;6.03;;;3.72;;
11970;SDS011;6045;42.682;23.294;2023-03-14T10:41:55;7.90;;;3.97;;
11970;SDS011;6045;42.682;23.294;2023-03-14T10:44:30;5.93;;;4.05;;
11970;SDS011;6045;42.682;23.294;2023-03-14T10:46:59;4.60;;;3.60;;
11970;SDS011;6045;42.682;23.294;2023-03-14T10:49:27;6.72;;;3.63;;
11970;SDS011;6045;42.682;23.294;2023-03-14T10:51:55;7.65;;;4.07;;
11970;SDS011;6045;42.682;23.294;2023-03-14T10:54:30;4.95;;;3.83;;
11970;SDS011;6045;42.682;23.294;2023-03-14T10:56:57;5.22;;;4.43;;
11970;SDS011;6045;42.682;23.294;2023-03-14T10:59:25;8.20;;;4.40;;
11970;SDS011;6045;42.682;23.294;2023-03-14T11:01:56;5.55;;;4.53;;
11970;SDS011;6045;42.682;23.294;2023-03-14T11:04:37;6.47;;;3.78;;
11970;SDS011;6045;42.682;23.294;2023-03-14T11:07:19;5.82;;;3.80;;
11970;SDS011;6045;42.682;23.294;2023-03-14T11:09:58;5.20;;;3.35;;
11970;SDS011;6045;42.682;23.294;2023-03-14T11:12:33;6.97;;;3.72;;
11970;SDS011;6045;42.682;23.294;2023-03-14T11:15:10;4.20;;;3.80;;
11970;SDS011;6045;42.682;23.294;2023-03-14T11:17:46;3.55;;;2.67;;
11970;SDS011;6045;42.682;23.294;2023-03-14T11:20:31;4.43;;;3.10;;
11970;SDS011;6045;42.682;23.294;2023-03-14T11:23:03;3.08;;;2.75;;
11970;SDS011;6045;42.682;23.294;2023-03-14T11:25:38;4.05;;;2.72;;
11970;SDS011;6045;42.682;23.294;2023-03-14T11:28:14;3.33;;;2.30;;
11970;SDS011;6045;42.682;23.294;2023-03-14T11:30:46;3.10;;;2.35;;
11970;SDS011;6045;42.682;23.294;2023-03-14T11:33:19;2.58;;;2.10;;
11970;SDS011;6045;42.682;23.294;2023-03-14T11:35:53;2.88;;;2.10;;
11970;SDS011;6045;42.682;23.294;2023-03-14T11:38:28;2.47;;;1.98;;
11970;SDS011;6045;42.682;23.294;2023-03-14T11:40:58;2.97;;;2.70;;
11970;SDS011;6045;42.682;23.294;2023-03-14T11:43:26;2.33;;;1.95;;
11970;SDS011;6045;42.682;23.294;2023-03-14T11:45:56;2.97;;;2.03;;
11970;SDS011;6045;42.682;23.294;2023-03-14T11:48:32;2.70;;;1.85;;
11970;SDS011;6045;42.682;23.294;2023-03-14T11:51:06;2.75;;;1.73;;
11970;SDS011;6045;42.682;23.294;2023-03-14T11:53:40;3.22;;;2.08;;
11970;SDS011;6045;42.682;23.294;2023-03-14T11:56:17;3.03;;;2.33;;
11970;SDS011;6045;42.682;23.294;2023-03-14T11:58:51;3.35;;;2.00;;
11970;SDS011;6045;42.682;23.294;2023-03-14T12:01:25;2.67;;;2.10;;
11970;SDS011;6045;42.682;23.294;2023-03-14T12:03:58;3.55;;;2.17;;
11970;SDS011;6045;42.682;23.294;2023-03-14T12:06:35;5.15;;;2.53;;
11970;SDS011;6045;42.682;23.294;2023-03-14T12:09:07;2.75;;;2.08;;
11970;SDS011;6045;42.682;23.294;2023-03-14T12:11:38;2.80;;;2.00;;
11970;SDS011;6045;42.682;23.294;2023-03-14T12:14:19;3.67;;;2.17;;
11970;SDS011;6045;42.682;23.294;2023-03-14T12:16:48;4.35;;;1.90;;
11970;SDS011;6045;42.682;23.294;2023-03-14T12:19:31;2.08;;;1.85;;
11970;SDS011;6045;42.682;23.294;2023-03-14T12:24:54;3.97;;;2.10;;
11970;SDS011;6045;42.682;23.294;2023-03-14T12:30:37;1.92;;;1.70;;
11970;SDS011;6045;42.682;23.294;2023-03-14T12:33:11;3.63;;;1.80;;
11970;SDS011;6045;42.682;23.294;2023-03-14T12:35:56;2.33;;;1.80;;
11970;SDS011;6045;42.682;23.294;2023-03-14T12:38:27;2.25;;;1.95;;
11970;SDS011;6045;42.682;23.294;2023-03-14T12:41:05;2.80;;;1.55;;
11970;SDS011;6045;42.682;23.294;2023-03-14T12:43:40;1.88;;;1.70;;
11970;SDS011;6045;42.682;23.294;2023-03-14T12:46:09;2.30;;;1.63;;
11970;SDS011;6045;42.682;23.294;2023-03-14T12:48:46;1.77;;;1.65;;
11970;SDS011;6045;42.682;23.294;2023-03-14T12:51:15;2.30;;;1.73;;
11970;SDS011;6045;42.682;23.294;2023-03-14T12:54:06;3.08;;;1.70;;
11970;SDS011;6045;42.682;23.294;2023-03-14T12:56:58;1.67;;;1.50;;
11970;SDS011;6045;42.682;23.294;2023-03-14T12:59:33;2.13;;;1.67;;
11970;SDS011;6045;42.682;23.294;2023-03-14T13:02:10;1.40;;;1.27;;
11970;SDS011;6045;42.682;23.294;2023-03-14T13:04:46;1.60;;;1.50;;
11970;SDS011;6045;42.682;23.294;2023-03-14T13:07:29;1.65;;;1.40;;
11970;SDS011;6045;42.682;23.294;2023-03-14T13:10:13;1.73;;;1.40;;
11970;SDS011;6045;42.682;23.294;2023-03-14T13:12:47;1.52;;;1.30;;
11970;SDS011;6045;42.682;23.294;2023-03-14T13:15:17;3.47;;;1.63;;
11970;SDS011;6045;42.682;23.294;2023-03-14T13:17:49;2.15;;;1.35;;
11970;SDS011;6045;42.682;23.294;2023-03-14T13:20:21;1.40;;;1.30;;
11970;SDS011;6045;42.682;23.294;2023-03-14T13:22:52;1.67;;;1.25;;
11970;SDS011;6045;42.682;23.294;2023-03-14T13:25:19;2.58;;;1.55;;
11970;SDS011;6045;42.682;23.294;2023-03-14T13:27:48;1.58;;;1.48;;
11970;SDS011;6045;42.682;23.294;2023-03-14T13:30:17;2.10;;;1.50;;
11970;SDS011;6045;42.682;23.294;2023-03-14T13:32:48;2.15;;;1.40;;
11970;SDS011;6045;42.682;23.294;2023-03-14T13:35:20;1.55;;;1.45;;
11970;SDS011;6045;42.682;23.294;2023-03-14T13:37:52;1.67;;;1.13;;
11970;SDS011;6045;42.682;23.294;2023-03-14T13:40:24;1.23;;;1.13;;
11970;SDS011;6045;42.682;23.294;2023-03-14T13:42:59;1.45;;;1.10;;
11970;SDS011;6045;42.682;23.294;2023-03-14T13:45:29;1.58;;;1.23;;
11970;SDS011;6045;42.682;23.294;2023-03-14T13:47:57;1.17;;;1.10;;
11970;SDS011;6045;42.682;23.294;2023-03-14T13:50:24;1.23;;;1.13;;
11970;SDS011;6045;42.682;23.294;2023-03-14T13:53:00;1.30;;;1.20;;
11970;SDS011;6045;42.682;23.294;2023-03-14T13:55:27;1.85;;;1.30;;
11970;SDS011;6045;42.682;23.294;2023-03-14T13:57:56;2.67;;;1.67;;
11970;SDS011;6045;42.682;23.294;2023-03-14T14:00:23;2.67;;;1.60;;
11970;SDS011;6045;42.682;23.294;2023-03-14T14:02:52;2.10;;;1.48;;
11970;SDS011;6045;42.682;23.294;2023-03-14T14:05:22;2.22;;;1.48;;
11970;SDS011;6045;42.682;23.294;2023-03-14T14:07:52;1.45;;;1.33;;
11970;SDS011;6045;42.682;23.294;2023-03-14T14:10:19;2.58;;;1.13;;
11970;SDS011;6045;42.682;23.294;2023-03-14T14:12:48;1.67;;;1.27;;
11970;SDS011;6045;42.682;23.294;2023-03-14T14:15:18;1.13;;;1.02;;
11970;SDS011;6045;42.682;23.294;2023-03-14T14:17:48;1.05;;;0.95;;
11970;SDS011;6045;42.682;23.294;2023-03-14T14:20:22;0.88;;;0.88;;
11970;SDS011;6045;42.682;23.294;2023-03-14T14:22:56;1.95;;;1.05;;
11970;SDS011;6045;42.682;23.294;2023-03-14T14:25:24;2.85;;;1.50;;
11970;SDS011;6045;42.682;23.294;2023-03-14T14:27:51;1.35;;;1.05;;
11970;SDS011;6045;42.682;23.294;2023-03-14T14:30:28;1.60;;;0.95;;
11970;SDS011;6045;42.682;23.294;2023-03-14T14:33:10;1.70;;;1.60;;
11970;SDS011;6045;42.682;23.294;2023-03-14T14:35:53;1.85;;;1.40;;
11970;SDS011;6045;42.682;23.294;2023-03-14T14:38:22;3.20;;;1.67;;
11970;SDS011;6045;42.682;23.294;2023-03-14T14:40:50;2.30;;;1.40;;
11970;SDS011;6045;42.682;23.294;2023-03-14T14:43:21;3.85;;;1.33;;
11970;SDS011;6045;42.682;23.294;2023-03-14T14:45:50;1.63;;;1.50;;
11970;SDS011;6045;42.682;23.294;2023-03-14T14:48:21;4.32;;;1.30;;
11970;SDS011;6045;42.682;23.294;2023-03-14T14:50:50;1.33;;;1.23;;
11970;SDS011;6045;42.682;23.294;2023-03-14T14:53:27;1.30;;;1.17;;
11970;SDS011;6045;42.682;23.294;2023-03-14T14:55:56;2.45;;;1.40;;
11970;SDS011;6045;42.682;23.294;2023-03-14T14:58:25;1.60;;;1.10;;
11970;SDS011;6045;42.682;23.294;2023-03-14T15:00:54;1.13;;;1.02;;
11970;SDS011;6045;42.682;23.294;2023-03-14T15:03:25;1.92;;;1.33;;
11970;SDS011;6045;42.682;23.294;2023-03-14T15:05:56;2.45;;;1.90;;
11970;SDS011;6045;42.682;23.294;2023-03-14T15:08:23;1.27;;;1.10;;